createdAt,value
2023-06-04T00:01:25.071Z,100522.25
2023-06-04T00:04:28.268Z,100512.53
2023-06-04T00:07:30.906Z,100517.84
2023-06-04T00:10:35.042Z,100519.50
2023-06-04T00:13:37.464Z,100525.66
2023-06-04T00:16:41.975Z,100526.41
2023-06-04T00:19:44.436Z,100526.34
2023-06-04T00:22:47.658Z,100522.84
2023-06-04T00:25:50.076Z,100515.81
2023-06-04T00:28:53.025Z,100519.31
2023-06-04T00:31:55.747Z,100513.12
2023-06-04T00:34:59.227Z,100513.94
2023-06-04T00:38:01.617Z,100521.87
2023-06-04T00:41:04.833Z,100517.44
2023-06-04T00:44:07.829Z,100513.94
2023-06-04T00:47:17.604Z,100504.28
2023-06-04T00:50:22.066Z,100513.06
2023-06-04T00:53:25.715Z,100513.94
2023-06-04T00:56:28.032Z,100513.91
2023-06-04T00:59:33.461Z,100510.34
2023-06-04T01:02:36.980Z,100518.22
2023-06-04T01:05:44.779Z,100516.53
2023-06-04T01:08:48.759Z,100509.47
2023-06-04T01:11:51.633Z,100512.03
2023-06-04T01:14:54.024Z,100509.41
2023-06-04T01:18:04.233Z,100512.09
2023-06-04T01:21:09.034Z,100509.44
2023-06-04T01:24:11.984Z,100507.69
2023-06-04T01:27:16.935Z,100512.91
2023-06-04T01:30:24.924Z,100508.50
2023-06-04T01:33:27.337Z,100502.44
2023-06-04T01:36:30.424Z,100493.63
2023-06-04T01:39:32.865Z,100500.69
2023-06-04T01:42:36.523Z,100517.34
2023-06-04T01:45:38.956Z,100505.00
2023-06-04T01:48:42.055Z,100511.13
2023-06-04T01:51:44.436Z,100507.66
2023-06-04T01:54:47.357Z,100505.78
2023-06-04T01:57:49.709Z,100510.12
2023-06-04T02:00:54.096Z,100508.31
2023-06-04T02:03:56.975Z,100513.59
2023-06-04T02:07:00.606Z,100515.22
2023-06-04T02:10:03.610Z,100515.25
2023-06-04T02:13:07.619Z,100518.78
2023-06-04T02:16:10.513Z,100515.37
2023-06-04T02:19:14.688Z,100516.25
2023-06-04T02:22:20.815Z,100527.59
2023-06-04T02:25:24.607Z,100517.88
2023-06-04T02:28:27.324Z,100519.66
2023-06-04T02:31:29.966Z,100522.28
2023-06-04T02:34:32.573Z,100527.50
2023-06-04T02:37:35.327Z,100526.66
2023-06-04T02:40:38.193Z,100528.44
2023-06-04T02:43:40.920Z,100521.41
2023-06-04T02:46:44.473Z,100524.81
2023-06-04T02:49:47.735Z,100517.84
2023-06-04T02:52:50.753Z,100526.59
2023-06-04T02:55:53.955Z,100524.94
2023-06-04T02:58:57.090Z,100525.81
2023-06-04T03:02:00.096Z,100524.03
2023-06-04T03:05:03.588Z,100524.00
2023-06-04T03:08:06.402Z,100533.75
2023-06-04T03:11:09.427Z,100522.22
2023-06-04T03:14:12.179Z,100524.06
2023-06-04T03:17:14.784Z,100519.66
2023-06-04T03:20:17.910Z,100518.63
2023-06-04T03:23:21.014Z,100516.03
2023-06-04T03:26:23.757Z,100522.19
2023-06-04T03:29:26.352Z,100517.75
2023-06-04T03:32:29.468Z,100529.16
2023-06-04T03:35:32.442Z,100529.31
2023-06-04T03:38:36.359Z,100539.84
2023-06-04T03:41:39.722Z,100539.91
2023-06-04T03:44:43.409Z,100543.41
2023-06-04T03:47:46.922Z,100543.41
2023-06-04T03:50:50.701Z,100539.97
2023-06-04T03:53:53.548Z,100542.59
2023-06-04T03:56:56.580Z,100545.31
2023-06-04T03:59:59.434Z,100557.78
2023-06-04T04:03:02.494Z,100554.22
2023-06-04T04:06:05.755Z,100549.75
2023-06-04T04:09:08.464Z,100555.87
2023-06-04T04:12:11.402Z,100559.41
2023-06-04T04:15:14.421Z,100565.59
2023-06-04T04:18:18.140Z,100564.66
2023-06-04T04:21:22.101Z,100576.09
2023-06-04T04:24:28.531Z,100575.19
2023-06-04T04:27:32.286Z,100572.72
2023-06-04T04:30:36.165Z,100576.16
2023-06-04T04:33:40.887Z,100572.75
2023-06-04T04:36:53.052Z,100568.28
2023-06-04T04:39:56.141Z,100570.19
2023-06-04T04:42:59.249Z,100574.66
2023-06-04T04:46:02.287Z,100578.12
2023-06-04T04:49:05.015Z,100571.94
2023-06-04T04:52:07.740Z,100574.78
2023-06-04T04:55:12.997Z,100576.72
2023-06-04T04:58:16.637Z,100574.19
2023-06-04T05:01:19.486Z,100572.69
2023-06-04T05:04:22.215Z,100571.03
2023-06-04T05:07:26.030Z,100570.22
2023-06-04T05:10:29.667Z,100574.75
2023-06-04T05:13:33.061Z,100580.81
2023-06-04T05:16:40.676Z,100578.12
2023-06-04T05:19:45.891Z,100584.53
2023-06-04T05:22:48.616Z,100589.75
2023-06-04T05:25:51.699Z,100586.13
2023-06-04T05:28:56.633Z,100594.09
2023-06-04T05:32:01.174Z,100597.59
2023-06-04T05:35:05.769Z,100605.56
2023-06-04T05:38:09.331Z,100601.22
2023-06-04T05:41:13.182Z,100608.25
2023-06-04T05:44:17.582Z,100606.47
2023-06-04T05:47:20.714Z,100612.00
2023-06-04T05:50:23.625Z,100610.25
2023-06-04T05:53:26.875Z,100603.28
2023-06-04T05:56:29.812Z,100610.28
2023-06-04T05:59:33.280Z,100616.66
2023-06-04T06:02:36.324Z,100614.09
2023-06-04T06:05:39.547Z,100608.81
2023-06-04T06:08:41.901Z,100607.22
2023-06-04T06:11:46.247Z,100603.59
2023-06-04T06:14:49.520Z,100607.16
2023-06-04T06:17:52.652Z,100595.78
2023-06-04T06:20:55.261Z,100601.38
2023-06-04T06:23:58.827Z,100601.66
2023-06-04T06:27:01.375Z,100600.06
2023-06-04T06:30:05.013Z,100604.53
2023-06-04T06:33:07.692Z,100592.34
2023-06-04T06:36:13.881Z,100611.84
2023-06-04T06:39:17.098Z,100602.19
2023-06-04T06:42:20.918Z,100606.56
2023-06-04T06:45:24.833Z,100612.72
2023-06-04T06:48:27.764Z,100612.78
2023-06-04T06:51:30.168Z,100615.53
2023-06-04T06:54:33.083Z,100618.97
2023-06-04T06:57:35.706Z,100624.25
2023-06-04T07:00:38.815Z,100629.56
2023-06-04T07:03:41.367Z,100633.06
2023-06-04T07:06:44.379Z,100634.81
2023-06-04T07:09:47.149Z,100634.84
2023-06-04T07:12:50.165Z,100632.19
2023-06-04T07:15:52.479Z,100633.09
2023-06-04T07:18:55.357Z,100637.53
2023-06-04T07:21:57.768Z,100638.47
2023-06-04T07:25:00.659Z,100643.81
2023-06-04T07:28:05.055Z,100637.75
2023-06-04T07:31:08.210Z,100641.28
2023-06-04T07:34:10.715Z,100635.12
2023-06-04T07:37:14.973Z,100638.66
2023-06-04T07:40:17.981Z,100643.09
2023-06-04T07:43:20.910Z,100630.75
2023-06-04T07:46:23.427Z,100632.56
2023-06-04T07:49:26.315Z,100627.22
2023-06-04T07:52:28.664Z,100636.03
2023-06-04T07:55:32.945Z,100633.41
2023-06-04T07:58:35.608Z,100637.81
2023-06-04T08:01:38.497Z,100642.22
2023-06-04T08:04:41.687Z,100640.41
2023-06-04T08:07:44.458Z,100646.53
2023-06-04T08:10:47.141Z,100638.56
2023-06-04T08:13:50.170Z,100645.59
2023-06-04T08:16:53.005Z,100648.22
2023-06-04T08:19:57.275Z,100638.47
2023-06-04T08:22:59.877Z,100637.50
2023-06-04T08:26:02.829Z,100636.63
2023-06-04T08:29:05.761Z,100636.59
2023-06-04T08:32:08.986Z,100640.97
2023-06-04T08:35:11.901Z,100636.56
2023-06-04T08:38:14.501Z,100640.13
2023-06-04T08:41:21.473Z,100644.41
2023-06-04T08:44:24.041Z,100647.06
2023-06-04T08:47:29.636Z,100649.56
2023-06-04T08:50:33.729Z,100642.41
2023-06-04T08:53:37.806Z,100640.31
2023-06-04T08:56:40.506Z,100623.44
2023-06-04T08:59:43.161Z,100630.63
2023-06-04T09:02:46.203Z,100633.13
2023-06-04T09:05:50.534Z,100629.72
2023-06-04T09:08:58.122Z,100626.44
2023-06-04T09:12:02.710Z,100634.50
2023-06-04T09:15:05.488Z,100635.50
2023-06-04T09:18:08.161Z,100637.25
2023-06-04T09:21:10.939Z,100634.78
2023-06-04T09:24:13.560Z,100635.81
2023-06-04T09:27:20.167Z,100631.34
2023-06-04T09:30:23.304Z,100631.41
2023-06-04T09:33:27.718Z,100637.53
2023-06-04T09:36:34.378Z,100637.44
2023-06-04T09:39:37.310Z,100646.44
2023-06-04T09:42:43.867Z,100636.75
2023-06-04T09:45:47.845Z,100625.16
2023-06-04T09:49:00.192Z,100629.56
2023-06-04T09:52:02.795Z,100635.78
2023-06-04T09:55:16.053Z,100635.66
2023-06-04T09:58:19.513Z,100639.34
2023-06-04T10:01:24.226Z,100638.44
2023-06-04T10:04:28.635Z,100641.13
2023-06-04T10:07:31.490Z,100639.41
2023-06-04T10:10:36.718Z,100632.38
2023-06-04T10:13:41.931Z,100641.22
2023-06-04T10:16:45.112Z,100638.62
2023-06-04T10:19:50.831Z,100644.81
2023-06-04T10:22:54.250Z,100649.19
2023-06-04T10:25:57.332Z,100636.75
2023-06-04T10:29:01.590Z,100639.41
2023-06-04T10:32:04.497Z,100638.56
2023-06-04T10:35:10.528Z,100644.72
2023-06-04T10:38:14.683Z,100642.06
2023-06-04T10:41:18.472Z,100642.94
2023-06-04T10:44:21.207Z,100642.84
2023-06-04T10:47:27.851Z,100638.34
2023-06-04T10:50:30.366Z,100644.47
2023-06-04T10:53:37.690Z,100646.13
2023-06-04T10:56:40.086Z,100644.37
2023-06-04T10:59:42.939Z,100643.53
2023-06-04T11:02:57.709Z,100642.75
2023-06-04T11:06:00.775Z,100641.81
2023-06-04T11:09:06.870Z,100646.06
2023-06-04T11:12:09.755Z,100641.44
2023-06-04T11:15:12.636Z,100637.84
2023-06-04T11:18:16.534Z,100640.31
2023-06-04T11:21:18.924Z,100637.37
2023-06-04T11:24:21.892Z,100631.09
2023-06-04T11:27:35.674Z,100640.84
2023-06-04T11:30:39.667Z,100640.00
2023-06-04T11:33:45.434Z,100638.38
2023-06-04T11:36:50.836Z,100628.62
2023-06-04T11:39:53.190Z,100631.34
2023-06-04T11:42:56.159Z,100630.59
2023-06-04T11:45:59.023Z,100639.75
2023-06-04T11:49:02.990Z,100639.91
2023-06-04T11:52:05.565Z,100632.94
2023-06-04T11:55:12.182Z,100632.06
2023-06-04T11:58:14.658Z,100631.22
2023-06-04T12:01:18.192Z,100643.59
2023-06-04T12:04:20.830Z,100636.50
2023-06-04T12:07:25.451Z,100638.25
2023-06-04T12:10:29.877Z,100634.81
2023-06-04T12:13:38.277Z,100632.97
2023-06-04T12:16:41.545Z,100637.44
2023-06-04T12:19:49.404Z,100641.00
2023-06-04T12:22:53.319Z,100645.41
2023-06-04T12:25:56.766Z,100649.00
2023-06-04T12:29:13.478Z,100641.97
2023-06-04T12:32:16.556Z,100635.78
2023-06-04T12:35:20.618Z,100636.63
2023-06-04T12:38:23.689Z,100633.06
2023-06-04T12:41:27.179Z,100638.38
2023-06-04T12:44:30.385Z,100645.47
2023-06-04T12:47:32.968Z,100635.69
2023-06-04T12:50:36.295Z,100630.34
2023-06-04T12:53:45.208Z,100632.06
2023-06-04T12:56:47.834Z,100630.16
2023-06-04T12:59:50.501Z,100622.12
2023-06-04T13:02:53.211Z,100621.19
2023-06-04T13:05:55.976Z,100614.91
2023-06-04T13:08:58.636Z,100628.19
2023-06-04T13:12:01.326Z,100622.00
2023-06-04T13:15:04.317Z,100617.66
2023-06-04T13:18:07.093Z,100624.78
2023-06-04T13:21:09.879Z,100622.94
2023-06-04T13:24:12.755Z,100610.50
2023-06-04T13:27:15.534Z,100606.94
2023-06-04T13:30:18.958Z,100601.53
2023-06-04T13:33:22.643Z,100604.00
2023-06-04T13:36:25.245Z,100591.38
2023-06-04T13:39:28.295Z,100595.63
2023-06-04T13:42:31.060Z,100596.37
2023-06-04T13:45:33.746Z,100592.50
2023-06-04T13:48:36.324Z,100593.84
2023-06-04T13:51:38.965Z,100593.78
2023-06-04T13:54:41.927Z,100598.09
2023-06-04T13:57:44.679Z,100593.44
2023-06-04T14:00:47.634Z,100588.25
2023-06-04T14:03:51.486Z,100585.72
2023-06-04T14:06:53.923Z,100584.16
2023-06-04T14:09:56.903Z,100579.91
2023-06-04T14:12:59.388Z,100581.81
2023-06-04T14:16:02.527Z,100579.09
2023-06-04T14:19:04.922Z,100567.62
2023-06-04T14:22:08.295Z,100565.66
2023-06-04T14:25:10.883Z,100565.69
2023-06-04T14:28:13.860Z,100565.81
2023-06-04T14:31:16.430Z,100571.25
2023-06-04T14:34:19.415Z,100572.16
2023-06-04T14:37:22.069Z,100573.19
2023-06-04T14:40:25.055Z,100563.63
2023-06-04T14:43:27.368Z,100559.41
2023-06-04T14:46:30.413Z,100552.41
2023-06-04T14:49:33.178Z,100554.25
2023-06-04T14:52:36.127Z,100561.44
2023-06-04T14:55:38.509Z,100559.69
2023-06-04T14:58:41.416Z,100560.59
2023-06-04T15:01:43.783Z,100556.19
2023-06-04T15:04:47.477Z,100558.94
2023-06-04T15:07:49.932Z,100558.13
2023-06-04T15:10:52.853Z,100555.47
2023-06-04T15:13:55.642Z,100549.34
2023-06-04T15:16:58.865Z,100540.44
2023-06-04T15:20:01.473Z,100544.91
2023-06-04T15:23:04.469Z,100544.03
2023-06-04T15:26:06.821Z,100536.91
2023-06-04T15:29:10.132Z,100539.69
2023-06-04T15:32:12.760Z,100540.69
2023-06-04T15:35:15.864Z,100541.56
2023-06-04T15:38:18.206Z,100543.38
2023-06-04T15:41:22.460Z,100542.59
2023-06-04T15:44:25.065Z,100537.34
2023-06-04T15:47:28.043Z,100540.88
2023-06-04T15:50:30.440Z,100537.34
2023-06-04T15:53:33.505Z,100528.47
2023-06-04T15:56:36.699Z,100531.16
2023-06-04T15:59:39.673Z,100524.97
2023-06-04T16:02:42.101Z,100532.06
2023-06-04T16:05:45.053Z,100540.91
2023-06-04T16:08:47.769Z,100530.28
2023-06-04T16:11:50.638Z,100532.19
2023-06-04T16:14:53.011Z,100527.72
2023-06-04T16:17:56.276Z,100527.72
2023-06-04T16:20:59.259Z,100530.38
2023-06-04T16:24:02.281Z,100524.22
2023-06-04T16:27:04.783Z,100519.66
2023-06-04T16:30:08.080Z,100527.72
2023-06-04T16:33:10.649Z,100520.59
2023-06-04T16:36:13.842Z,100527.69
2023-06-04T16:39:16.173Z,100530.41
2023-06-04T16:42:19.181Z,100532.13
2023-06-04T16:45:22.148Z,100528.59
2023-06-04T16:48:25.186Z,100532.31
2023-06-04T16:51:27.534Z,100537.63
2023-06-04T16:54:30.948Z,100542.13
2023-06-04T16:57:33.420Z,100531.50
2023-06-04T17:00:36.585Z,100523.53
2023-06-04T17:03:39.087Z,100524.47
2023-06-04T17:06:42.104Z,100528.97
2023-06-04T17:09:44.934Z,100521.00
2023-06-04T17:12:49.009Z,100530.72
2023-06-04T17:15:51.406Z,100527.22
2023-06-04T17:18:54.431Z,100528.13
2023-06-04T17:21:56.955Z,100526.34
2023-06-04T17:25:00.040Z,100525.47
2023-06-04T17:28:02.385Z,100530.78
2023-06-04T17:31:05.463Z,100533.44
2023-06-04T17:34:07.889Z,100539.66
2023-06-04T17:37:10.898Z,100529.06
2023-06-04T17:40:13.257Z,100530.84
2023-06-04T17:43:16.371Z,100529.97
2023-06-04T17:46:19.117Z,100528.19
2023-06-04T17:49:22.648Z,100528.19
2023-06-04T17:52:25.028Z,100534.41
2023-06-04T17:55:27.987Z,100531.78
2023-06-04T17:58:30.441Z,100529.13
2023-06-04T18:01:33.639Z,100532.69
2023-06-04T18:04:36.360Z,100530.91
2023-06-04T18:07:39.288Z,100533.56
2023-06-04T18:10:43.015Z,100532.69
2023-06-04T18:13:45.955Z,100536.22
2023-06-04T18:16:48.665Z,100522.94
2023-06-04T18:19:52.444Z,100530.03
2023-06-04T18:22:55.135Z,100526.47
2023-06-04T18:25:59.901Z,100534.47
2023-06-04T18:29:03.450Z,100538.00
2023-06-04T18:32:06.398Z,100543.31
2023-06-04T18:35:09.353Z,100540.66
2023-06-04T18:38:12.330Z,100538.00
2023-06-04T18:41:16.165Z,100545.97
2023-06-04T18:44:18.908Z,100547.69
2023-06-04T18:47:22.301Z,100554.78
2023-06-04T18:50:24.919Z,100552.13
2023-06-04T18:53:27.548Z,100549.44
2023-06-04T18:56:30.168Z,100561.81
2023-06-04T18:59:32.868Z,100561.84
2023-06-04T19:02:39.544Z,100561.84
2023-06-04T19:05:42.603Z,100575.09
2023-06-04T19:08:45.855Z,100572.41
2023-06-04T19:11:48.476Z,100575.97
2023-06-04T19:14:51.102Z,100581.25
2023-06-04T19:17:53.819Z,100567.13
2023-06-04T19:20:56.436Z,100583.91
2023-06-04T19:23:59.081Z,100582.09
2023-06-04T19:27:01.772Z,100584.78
2023-06-04T19:30:04.701Z,100583.88
2023-06-04T19:33:07.411Z,100586.50
2023-06-04T19:36:10.268Z,100583.84
2023-06-04T19:39:12.975Z,100584.72
2023-06-04T19:42:15.761Z,100579.44
2023-06-04T19:45:18.461Z,100581.19
2023-06-04T19:48:21.536Z,100586.47
2023-06-04T19:51:26.369Z,100583.84
2023-06-04T19:54:30.693Z,100576.78
2023-06-04T19:57:33.351Z,100586.47
2023-06-04T20:00:36.235Z,100585.56
2023-06-04T20:03:41.805Z,100582.94
2023-06-04T20:06:46.621Z,100578.56
2023-06-04T20:09:49.577Z,100582.91
2023-06-04T20:12:51.986Z,100589.09
2023-06-04T20:15:54.927Z,100588.25
2023-06-04T20:18:57.298Z,100582.91
2023-06-04T20:22:00.528Z,100585.50
2023-06-04T20:25:02.987Z,100590.84
2023-06-04T20:28:06.107Z,100587.22
2023-06-04T20:31:08.538Z,100579.28
2023-06-04T20:34:11.630Z,100579.28
2023-06-04T20:37:14.055Z,100578.41
2023-06-04T20:40:17.164Z,100580.16
2023-06-04T20:43:19.734Z,100575.72
2023-06-04T20:46:23.577Z,100580.16
2023-06-04T20:49:26.206Z,100584.53
2023-06-04T20:52:29.149Z,100575.72
2023-06-04T20:55:31.476Z,100579.22
2023-06-04T20:58:34.484Z,100572.16
2023-06-04T21:01:36.884Z,100579.22
2023-06-04T21:04:39.861Z,100578.34
2023-06-04T21:07:42.199Z,100571.25
2023-06-04T21:10:45.096Z,100572.19
2023-06-04T21:13:47.474Z,100574.81
2023-06-04T21:16:50.566Z,100577.44
2023-06-04T21:19:52.955Z,100576.56
2023-06-04T21:22:55.857Z,100579.19
2023-06-04T21:25:58.335Z,100575.66
2023-06-04T21:29:01.273Z,100573.03
2023-06-04T21:32:03.818Z,100580.97
2023-06-04T21:35:07.052Z,100575.69
2023-06-04T21:38:09.531Z,100579.19
2023-06-04T21:41:12.437Z,100583.59
2023-06-04T21:44:14.816Z,100587.13
2023-06-04T21:47:18.036Z,100586.22
2023-06-04T21:50:20.868Z,100582.66
2023-06-04T21:53:24.032Z,100592.38
2023-06-04T21:56:27.208Z,100593.22
2023-06-04T21:59:30.146Z,100587.97
2023-06-04T22:02:32.536Z,100586.19
2023-06-04T22:05:36.032Z,100588.78
2023-06-04T22:08:38.400Z,100591.41
2023-06-04T22:11:41.444Z,100590.53
2023-06-04T22:14:44.239Z,100591.41
2023-06-04T22:17:47.170Z,100590.53
2023-06-04T22:20:49.569Z,100597.59
2023-06-04T22:23:52.867Z,100596.69
2023-06-04T22:26:55.204Z,100595.81
2023-06-04T22:29:58.210Z,100601.09
2023-06-04T22:33:00.555Z,100604.62
2023-06-04T22:36:03.916Z,100601.97
2023-06-04T22:39:06.687Z,100607.25
2023-06-04T22:42:09.751Z,100602.81
2023-06-04T22:45:12.186Z,100589.63
2023-06-04T22:48:15.160Z,100598.41
2023-06-04T22:51:18.314Z,100598.41
2023-06-04T22:54:21.389Z,100596.63
2023-06-04T22:57:25.546Z,100593.06
2023-06-04T23:00:28.719Z,100595.75
2023-06-04T23:03:31.496Z,100596.63
2023-06-04T23:06:34.703Z,100598.38
2023-06-04T23:09:37.157Z,100599.25
2023-06-04T23:12:40.096Z,100601.00
2023-06-04T23:15:42.634Z,100590.41
2023-06-04T23:18:45.665Z,100587.75
2023-06-04T23:21:48.052Z,100588.63
2023-06-04T23:24:50.962Z,100589.53
2023-06-04T23:27:53.347Z,100582.44
2023-06-04T23:30:56.492Z,100583.34
2023-06-04T23:33:58.791Z,100578.94
2023-06-04T23:37:02.089Z,100587.69
2023-06-04T23:40:05.722Z,100579.78
2023-06-04T23:43:08.652Z,100580.69
2023-06-04T23:46:11.081Z,100583.28
2023-06-04T23:49:14.060Z,100578.00
2023-06-04T23:52:17.647Z,100585.06
2023-06-04T23:55:20.728Z,100578.88
2023-06-04T23:58:23.035Z,100579.78
